• Join FlightAware (Why Join?)
  • Login
  • US Flag 
08:13PM EDT


 

Airport Tracker/Info


-or-


 

Live Flight TrackerFlight Track Log ✈ EJA396 ✈ 26-Sep-2013 ✈ KTEB - KACK

Flight Track Log - Related Links

Times and Time Zones

All times are in EDT time to prevent confusion due to time zone crossing. See the EJA396 flight status page for this flight to view local times or setup timezone preferences in your user account.

Time Position Orientation Groundspeed Altitude Reporting Facility
EDT Latitude Longitude Course Direction KTS MPH feet Rate Location/Type
10:11AM 40.8833 -74.0500 339° North 182 209 1,600  Level New York TRACON
10:12AM 40.9167 -74.0667 339° North 211 243 3,400 1,860 Climbing New York TRACON
10:13AM 40.9667 -74.1167 323° Northwest 258 297 5,400 1,260 Climbing New York TRACON
10:14AM 41.0333 -74.1833 323° Northwest 256 295 6,000 300 Climbing New York TRACON
10:15AM 41.0833 -74.2167 333° Northwest 274 315 6,000  Level New York TRACON
10:15AM 41.1333 -74.1500 45° Northeast 269 310 6,000 780 Level New York TRACON
10:16AM 41.1500 -74.0667 75° East 267 307 7,500 2,460 Climbing New York TRACON
10:17AM 41.1833 -73.9667 66° East 290 334 11,000 1,140 Climbing New York TRACON
10:19AM 41.2383 -73.7375 72° East 362 417 11,000 360 Level Boston Center
10:20AM 41.2686 -73.6275 70° East 357 411 12,100 1,320 Climbing Boston Center
10:21AM 41.2806 -73.4897 83° East 346 398 13,700 1,380 Climbing Boston Center
10:22AM 41.2817 -73.3683 89° East 354 407 15,000 600 Climbing Boston Center
10:23AM 41.2869 -73.2300 87° East 360 414 15,000  Level Boston Center
10:24AM 41.2919 -73.0811 87° East 366 421 15,000  Level Boston Center
10:25AM 41.2989 -72.9431 86° East 361 415 15,000  Level Boston Center
10:26AM 41.3056 -72.8075 86° East 367 422 15,000  Level Boston Center
10:27AM 41.3103 -72.6722 87° East 367 422 15,000  Level Boston Center
10:28AM 41.3144 -72.5342 88° East 367 422 15,000  Level Boston Center
10:29AM 41.3189 -72.3958 88° East 367 422 15,000  Level Boston Center
10:30AM 41.3250 -72.2522 87° East 367 422 15,000  Level Boston Center
10:31AM 41.3289 -72.1278 88° East 372 428 15,000  Level Boston Center
10:32AM 41.3344 -71.9756 87° East 367 422 15,000  Level Boston Center
10:33AM 41.3403 -71.8567 86° East 367 422 15,000  Level Boston Center
10:34AM 41.3475 -71.6992 86° East 367 422 15,000  Level Boston Center
10:35AM 41.3531 -71.5719 87° East 373 429 15,000  Level Boston Center
10:36AM 41.3536 -71.4197 90° East 373 429 15,000  Level Boston Center
10:37AM 41.3111 -71.3042 116° Southeast 378 435 15,000  Level Boston Center
10:38AM 41.2533 -71.1644 119° Southeast 383 441 15,000 -480 Level Boston Center
10:39AM 41.2061 -71.0550 120° Southeast 391 450 14,100 -1,320 Descending Boston Center
10:40AM 41.1564 -70.9211 116° Southeast 376 433 12,400 -1,680 Descending Boston Center
10:41AM 41.1589 -70.8025 88° East 339 390 10,800 -1,620 Descending Boston Center
10:42AM 41.1636 -70.6919 87° East 306 352 9,300 -1,500 Descending Boston Center
10:43AM 41.1681 -70.5900 87° East 294 338 7,800 -1,440 Descending Boston Center
10:44AM 41.1747 -70.4850 85° East 283 326 6,400 -1,440 Descending Boston Center
10:45AM 41.1772 -70.3883 88° East 269 310 5,000 -1,260 Descending Boston Center
10:46AM 41.1819 -70.3053 86° East 264 304 4,000 -840 Descending Boston Center
10:47AM 41.1675 -70.2122 102° East 253 291 3,400 -1,140 Descending Boston Center
10:48AM 41.1872 -70.1508 67° East 235 270 1,800 -1,440 Descending Boston Center
10:49AM 41.2258 -70.1081 40° Northeast 173 199 600 -660 Descending Boston Center
10:50AM 41.2475 -70.0436 66° East 173 199 500 5,220 Descending Boston Center
10:51AM 41.2711 -69.9875 61° Northeast 173 199 11,000 10,860 Climbing Boston Center